Time;durP1;ratioP1;P1;durP2;ratioP2;P2;SDS_P1;SDS_P2;PMS_P1;PMS_P2;Temp;Humidity;BMP_temperature;BMP_pressure;BME280_temperature;BME280_humidity;BME280_pressure;Samples;Min_cycle;Max_cycle;Signal;HPM_P1;HPM_P2
2021/04/15 00:00:24;;;;;;;10.18;5.00;;;;;;;-146.18;100.00;67994.34;9992882;29;20051;-67
2021/04/15 00:05:25;;;;;;;11.57;4.70;;;;;;;-146.18;100.00;67994.34;9990174;29;20077;-68
2021/04/15 00:10:31;;;;;;;10.80;5.20;;;;;;;-146.18;100.00;67994.34;9991399;29;20048;-66
2021/04/15 00:15:27;;;;;;;11.80;5.68;;;;;;;-146.18;100.00;67994.34;9999185;29;20622;-67
2021/04/15 00:20:23;;;;;;;7.43;4.47;;;;;;;-146.18;100.00;67994.34;9999073;29;20107;-69
2021/04/15 00:25:20;;;;;;;9.30;4.90;;;;;;;-146.18;100.00;67994.34;9990839;29;20059;-68
2021/04/15 00:30:17;;;;;;;9.32;5.72;;;;;;;-146.18;100.00;67994.34;9994320;29;20418;-68
2021/04/15 00:35:13;;;;;;;10.32;5.03;;;;;;;-146.18;100.00;67994.34;9992700;29;20470;-67
2021/04/15 00:40:11;;;;;;;8.98;5.10;;;;;;;-146.18;100.00;67994.34;9987214;29;20063;-68
2021/04/15 00:45:13;;;;;;;10.75;5.35;;;;;;;-146.18;100.00;67994.34;9989982;29;20056;-69
2021/04/15 00:50:26;;;;;;;10.57;5.55;;;;;;;-146.18;100.00;67994.34;9988484;29;20099;-68
2021/04/15 00:55:26;;;;;;;11.30;5.72;;;;;;;-146.18;100.00;67994.34;9991183;29;20048;-68
2021/04/15 01:00:27;;;;;;;10.90;4.85;;;;;;;-146.18;100.00;67994.34;9995444;29;20572;-68
2021/04/15 01:05:38;;;;;;;9.75;4.65;;;;;;;-146.18;100.00;67994.34;9981932;29;20052;-68
2021/04/15 01:10:38;;;;;;;13.13;5.05;;;;;;;-146.18;100.00;67994.34;9984384;29;20048;-65
2021/04/15 01:16:03;;;;;;;11.45;5.38;;;;;;;-146.18;100.00;67994.34;9996355;29;20581;-65
2021/04/15 01:21:14;;;;;;;13.15;5.18;;;;;;;-146.18;100.00;67994.34;9996164;29;20134;-67
2021/04/15 01:26:39;;;;;;;10.63;4.65;;;;;;;-146.18;100.00;67994.34;9993797;29;20064;-68
2021/04/15 01:32:15;;;;;;;12.23;5.22;;;;;;;-146.18;100.00;67994.34;9999427;29;20526;-68
2021/04/15 01:37:18;;;;;;;11.30;5.20;;;;;;;-146.18;100.00;67994.34;9993008;29;20044;-68
2021/04/15 01:42:24;;;;;;;9.85;4.82;;;;;;;-146.18;100.00;67994.34;10011528;29;20059;-69
2021/04/15 01:47:27;;;;;;;9.18;4.45;;;;;;;-146.18;100.00;67994.34;10001273;29;20051;-68
2021/04/15 01:52:27;;;;;;;8.32;4.65;;;;;;;-146.18;100.00;67994.34;10020353;29;20532;-66
2021/04/15 01:57:34;;;;;;;12.48;5.18;;;;;;;-146.18;100.00;67994.34;9991475;29;20048;-68
2021/04/15 02:02:40;;;;;;;15.77;4.60;;;;;;;-146.18;100.00;67994.34;9994405;29;20064;-68
2021/04/15 02:07:43;;;;;;;9.80;4.57;;;;;;;-146.18;100.00;67994.34;9993579;29;20088;-69
2021/04/15 02:12:44;;;;;;;9.90;5.20;;;;;;;-146.18;100.00;67994.34;9997880;29;20052;-66
2021/04/15 02:17:41;;;;;;;7.38;3.90;;;;;;;-146.18;100.00;67994.34;9997291;29;20142;-67
2021/04/15 02:22:54;;;;;;;10.02;4.57;;;;;;;-146.18;100.00;67994.34;10000765;29;20533;-64
2021/04/15 02:28:17;;;;;;;10.30;5.10;;;;;;;-146.18;100.00;67994.34;9996972;29;20102;-65
2021/04/15 02:33:23;;;;;;;9.68;4.63;;;;;;;-146.18;100.00;67994.34;9999225;29;20056;-66
2021/04/15 02:38:25;;;;;;;7.95;3.92;;;;;;;-146.18;100.00;67994.34;9986694;29;20044;-65
2021/04/15 02:43:30;;;;;;;7.32;4.18;;;;;;;-146.18;100.00;67994.34;9999573;29;20044;-67
2021/04/15 02:48:34;;;;;;;7.25;4.45;;;;;;;-146.18;100.00;67994.34;9996129;29;20046;-66
2021/04/15 02:53:55;;;;;;;9.45;4.60;;;;;;;-146.18;100.00;67994.34;9995004;29;20529;-65
2021/04/15 02:58:57;;;;;;;12.52;4.93;;;;;;;-146.18;100.00;67994.34;10005858;29;20123;-64
2021/04/15 03:03:56;;;;;;;8.60;3.33;;;;;;;-146.18;100.00;67994.34;9991081;29;20043;-66
2021/04/15 03:08:58;;;;;;;9.10;4.05;;;;;;;-146.18;100.00;67994.34;9993736;29;20099;-66
2021/04/15 03:13:56;;;;;;;8.80;4.20;;;;;;;-146.18;100.00;67994.34;9994247;29;20040;-67
2021/04/15 03:18:57;;;;;;;7.68;4.28;;;;;;;-146.18;100.00;67994.34;9988744;29;20048;-67
2021/04/15 03:24:04;;;;;;;10.55;4.07;;;;;;;-146.18;100.00;67994.34;9992883;29;20052;-66
2021/04/15 03:29:08;;;;;;;8.52;4.68;;;;;;;-146.18;100.00;67994.34;9987157;29;20052;-67
2021/04/15 03:34:06;;;;;;;;;;;;;;;-146.18;100.00;67994.34;9998191;29;20103;-67
2021/04/15 03:39:09;;;;;;;7.72;3.80;;;;;;;-146.18;100.00;67994.34;9987800;29;20358;-67
2021/04/15 03:44:47;;;;;;;8.77;4.93;;;;;;;-146.18;100.00;67994.34;9990268;29;20277;-68
2021/04/15 03:49:51;;;;;;;11.63;4.85;;;;;;;-146.18;100.00;67994.34;9996490;29;20052;-66
2021/04/15 03:54:52;;;;;;;12.13;4.90;;;;;;;-146.18;100.00;67994.34;9994243;29;20581;-67
2021/04/15 03:59:53;;;;;;;13.32;4.53;;;;;;;-146.18;100.00;67994.34;9999188;29;20046;-66
2021/04/15 04:04:54;;;;;;;10.23;4.53;;;;;;;-146.18;100.00;67994.34;9991942;29;20047;-66
2021/04/15 04:10:01;;;;;;;11.20;5.82;;;;;;;-146.18;100.00;67994.34;9994012;29;20043;-66
2021/04/15 04:15:22;;;;;;;12.27;4.78;;;;;;;-146.18;100.00;67994.34;9987235;29;20735;-67
2021/04/15 04:20:19;;;;;;;9.50;5.07;;;;;;;-146.18;100.00;67994.34;9993033;29;20048;-66
2021/04/15 04:25:37;;;;;;;8.52;4.28;;;;;;;-146.18;100.00;67994.34;9995232;29;20060;-67
2021/04/15 04:30:49;;;;;;;9.70;4.18;;;;;;;-146.18;100.00;67994.34;10000777;29;20123;-67
2021/04/15 04:35:48;;;;;;;8.57;4.03;;;;;;;-146.18;100.00;67994.34;10002149;29;20047;-66
2021/04/15 04:40:50;;;;;;;9.57;4.45;;;;;;;-146.18;100.00;67994.34;9999118;29;20051;-66
2021/04/15 04:45:48;;;;;;;9.40;4.72;;;;;;;-146.18;100.00;67994.34;9999127;29;20071;-67
2021/04/15 04:51:08;;;;;;;8.52;4.55;;;;;;;-146.18;100.00;67994.34;9991366;29;20514;-67
2021/04/15 04:56:13;;;;;;;11.27;4.95;;;;;;;-146.18;100.00;67994.34;9991549;29;20071;-66
2021/04/15 05:01:10;;;;;;;12.35;5.63;;;;;;;-146.18;100.00;67994.34;9992636;29;20723;-66
2021/04/15 05:06:08;;;;;;;9.57;6.00;;;;;;;-146.18;100.00;67994.34;9999144;29;20502;-66
2021/04/15 05:11:05;;;;;;;12.43;6.35;;;;;;;-146.18;100.00;67994.34;10000775;29;20048;-69
2021/04/15 05:16:03;;;;;;;13.82;6.25;;;;;;;-146.18;100.00;67994.34;9995421;29;20104;-66
2021/04/15 05:21:11;;;;;;;10.15;6.10;;;;;;;-146.18;100.00;67994.34;9995969;29;20051;-64
2021/04/15 05:26:16;;;;;;;14.05;6.25;;;;;;;-146.18;100.00;67994.34;9997599;29;20430;-69
2021/04/15 05:31:16;;;;;;;12.40;6.70;;;;;;;-146.18;100.00;67994.34;9998599;29;20043;-64
2021/04/15 05:36:21;;;;;;;11.07;6.70;;;;;;;-146.18;100.00;67994.34;9998419;29;20059;-65
2021/04/15 05:41:24;;;;;;;15.70;7.00;;;;;;;-146.18;100.00;67994.34;9996496;29;20103;-66
2021/04/15 05:46:25;;;;;;;14.23;6.77;;;;;;;-146.18;100.00;67994.34;10000783;29;20040;-67
2021/04/15 05:51:29;;;;;;;12.90;7.35;;;;;;;-146.18;100.00;67994.34;9998871;29;20554;-64
2021/04/15 05:56:35;;;;;;;10.57;6.28;;;;;;;-146.18;100.00;67994.34;9996694;29;20047;-66
2021/04/15 06:01:42;;;;;;;12.05;6.68;;;;;;;-146.18;100.00;67994.34;10006675;29;20055;-67
2021/04/15 06:06:40;;;;;;;14.73;7.22;;;;;;;-146.18;100.00;67994.34;10001150;29;20041;-68
2021/04/15 06:11:39;;;;;;;9.98;6.28;;;;;;;-146.18;100.00;67994.34;10001006;29;20048;-70
2021/04/15 06:16:48;;;;;;;11.45;6.60;;;;;;;-146.18;100.00;67994.34;10005885;29;20043;-67
2021/04/15 06:21:53;;;;;;;15.70;6.13;;;;;;;-146.18;100.00;67994.34;10003361;29;20118;-66
2021/04/15 06:26:55;;;;;;;12.65;6.13;;;;;;;-146.18;100.00;67994.34;9990384;29;20111;-70
2021/04/15 06:31:55;;;;;;;15.65;7.15;;;;;;;-146.18;100.00;67994.34;10004884;29;20459;-69
2021/04/15 06:37:04;;;;;;;11.27;5.75;;;;;;;-146.18;100.00;67994.34;9987723;29;20040;-73
2021/04/15 06:42:27;;;;;;;20.58;6.50;;;;;;;-146.18;100.00;67994.34;10004365;29;20214;-66
2021/04/15 06:47:45;;;;;;;21.27;7.65;;;;;;;-146.18;100.00;67994.34;9987850;29;20068;-68
2021/04/15 06:53:26;;;;;;;12.73;5.32;;;;;;;-146.18;100.00;67994.34;10011774;29;20470;-64
2021/04/15 06:59:03;;;;;;;10.68;5.45;;;;;;;-146.18;100.00;67994.34;9991756;29;20088;-66
2021/04/15 07:04:08;;;;;;;10.70;5.50;;;;;;;-146.18;100.00;67994.34;9972859;29;20487;-69
2021/04/15 07:09:34;;;;;;;10.85;4.82;;;;;;;-146.18;100.00;67994.34;10005744;29;20055;-64
2021/04/15 07:15:05;;;;;;;11.60;4.70;;;;;;;-146.18;100.00;67994.34;10003715;29;20080;-65
2021/04/15 07:20:33;;;;;;;8.70;3.97;;;;;;;-146.18;100.00;67994.34;9999704;29;20051;-69
2021/04/15 07:26:05;;;;;;;8.25;3.65;;;;;;;-146.18;100.00;67994.34;10001761;29;20055;-68
2021/04/15 07:31:46;;;;;;;8.02;4.65;;;;;;;-146.18;100.00;67994.34;9999020;29;20179;-67
2021/04/15 07:37:01;;;;;;;7.75;3.95;;;;;;;-146.18;100.00;67994.34;10019481;29;20048;-71
2021/04/15 07:42:20;;;;;;;10.18;4.00;;;;;;;-146.18;100.00;67994.34;10005057;29;20051;-69
2021/04/15 07:47:34;;;;;;;10.35;3.38;;;;;;;-146.18;100.00;67994.34;9996458;29;20051;-67
2021/04/15 07:53:09;;;;;;;;;;;;;;;-146.18;100.00;67994.34;10003861;29;20477;-67
2021/04/15 07:58:36;;;;;;;9.15;2.85;;;;;;;-146.18;100.00;67994.34;9961707;29;20016;-68
2021/04/15 08:04:10;;;;;;;8.10;2.50;;;;;;;-146.18;100.00;67994.34;9993134;29;20480;-65
2021/04/15 08:09:39;;;;;;;6.38;2.55;;;;;;;-146.18;100.00;67994.34;10000162;29;20058;-64
2021/04/15 08:15:13;;;;;;;5.70;1.83;;;;;;;-146.18;100.00;67994.34;9999728;29;20514;-71
2021/04/15 08:20:26;;;;;;;13.98;4.72;;;;;;;-146.18;100.00;67994.34;10000928;29;20056;-67
2021/04/15 08:25:45;;;;;;;5.22;1.52;;;;;;;-146.18;100.00;67994.34;9999429;29;20056;-63
2021/04/15 08:30:53;;;;;;;6.53;1.90;;;;;;;-146.18;100.00;67994.34;9998670;29;20051;-67
2021/04/15 08:36:02;;;;;;;2.83;1.35;;;;;;;-146.18;100.00;67994.34;9997814;29;20086;-66
2021/04/15 08:41:27;;;;;;;9.23;1.75;;;;;;;-146.18;100.00;67994.34;9997934;29;20534;-66
2021/04/15 08:46:35;;;;;;;2.33;0.90;;;;;;;-146.18;100.00;67994.34;10007913;29;20139;-68
2021/04/15 08:51:52;;;;;;;2.50;0.93;;;;;;;-146.18;100.00;67994.34;10001595;29;20123;-69
2021/04/15 08:57:17;;;;;;;4.18;1.00;;;;;;;-146.18;100.00;67994.34;9997088;29;20546;-68
2021/04/15 09:02:24;;;;;;;3.28;1.10;;;;;;;-146.18;100.00;67994.34;10001436;29;20083;-67
2021/04/15 09:07:37;;;;;;;2.70;0.95;;;;;;;-146.18;100.00;67994.34;9994531;29;20542;-68
2021/04/15 09:12:55;;;;;;;2.08;0.70;;;;;;;-146.18;100.00;67994.34;9999064;29;20115;-67
2021/04/15 09:18:09;;;;;;;1.92;0.50;;;;;;;-146.18;100.00;67994.34;9994545;29;20741;-67
2021/04/15 09:23:05;;;;;;;;;;;;;;;-146.18;100.00;67994.34;9998604;29;20174;-67
2021/04/15 09:28:16;;;;;;;2.95;0.75;;;;;;;-146.18;100.00;67994.34;10007815;29;20300;-67
2021/04/15 09:33:18;;;;;;;2.22;0.77;;;;;;;-146.18;100.00;67994.34;10005813;29;20779;-67
2021/04/15 09:38:31;;;;;;;1.50;0.47;;;;;;;-146.18;100.00;67994.34;10006574;29;20468;-66
2021/04/15 09:43:27;;;;;;;2.05;0.50;;;;;;;-146.18;100.00;67994.34;9999481;29;20080;-67
2021/04/15 09:48:34;;;;;;;2.53;0.50;;;;;;;-146.18;100.00;67994.34;10008110;29;20040;-70
2021/04/15 09:54:00;;;;;;;1.95;0.95;;;;;;;-146.18;100.00;67994.34;10004717;29;20056;-66
2021/04/15 09:59:06;;;;;;;1.60;0.40;;;;;;;-146.18;100.00;67994.34;9995927;29;20877;-65
2021/04/15 10:04:32;;;;;;;2.25;0.70;;;;;;;-146.18;100.00;67994.34;10005624;29;20048;-67
2021/04/15 10:09:41;;;;;;;2.28;0.68;;;;;;;-146.18;100.00;67994.34;9999702;29;20048;-67
2021/04/15 10:15:07;;;;;;;3.97;0.70;;;;;;;-146.18;100.00;67994.34;9993714;29;20047;-71
2021/04/15 10:20:16;;;;;;;2.85;0.60;;;;;;;-146.18;100.00;67994.34;9995631;29;20053;-65
2021/04/15 10:25:54;;;;;;;1.55;0.63;;;;;;;-146.18;100.00;67994.34;10008016;29;20465;-72
2021/04/15 10:31:17;;;;;;;4.35;0.80;;;;;;;-146.18;100.00;67994.34;9997259;29;20039;-65
2021/04/15 10:36:32;;;;;;;1.17;0.40;;;;;;;-146.18;100.00;67994.34;10010702;29;20055;-66
2021/04/15 10:41:47;;;;;;;1.75;0.63;;;;;;;-146.18;100.00;67994.34;9996229;29;20127;-65
2021/04/15 10:46:58;;;;;;;2.03;0.70;;;;;;;-146.18;100.00;67994.34;9998915;29;20047;-67
2021/04/15 10:52:05;;;;;;;3.60;0.60;;;;;;;-146.18;100.00;67994.34;9995727;29;20055;-67
2021/04/15 10:57:15;;;;;;;5.18;1.17;;;;;;;-146.18;100.00;67994.34;9999293;29;20056;-66
2021/04/15 11:02:19;;;;;;;2.95;0.70;;;;;;;-146.18;100.00;67994.34;10007494;29;20422;-67
2021/04/15 11:07:21;;;;;;;2.63;0.50;;;;;;;-146.18;100.00;67994.34;10008025;29;20044;-68
2021/04/15 11:12:20;;;;;;;2.50;0.40;;;;;;;-146.18;100.00;67994.34;10002011;29;21695;-67
2021/04/15 11:17:31;;;;;;;4.10;1.00;;;;;;;-146.18;100.00;67994.34;10003013;29;20040;-67
2021/04/15 11:22:32;;;;;;;4.00;1.15;;;;;;;-146.18;100.00;67994.34;10005100;29;20052;-67
2021/04/15 11:27:37;;;;;;;2.85;0.80;;;;;;;-146.18;100.00;67994.34;9999572;29;20083;-65
2021/04/15 11:32:36;;;;;;;3.58;0.77;;;;;;;-146.18;100.00;67994.34;9996397;29;20107;-70
2021/04/15 11:37:34;;;;;;;2.63;0.70;;;;;;;-146.18;100.00;67994.34;9999077;29;20466;-65
2021/04/15 11:42:35;;;;;;;2.05;0.60;;;;;;;-146.18;100.00;67994.34;10000635;29;20070;-65
2021/04/15 11:47:34;;;;;;;1.90;0.70;;;;;;;-146.18;100.00;67994.34;10002132;29;20051;-69
2021/04/15 11:52:33;;;;;;;2.05;0.80;;;;;;;-146.18;100.00;67994.34;9992592;29;20125;-65
2021/04/15 11:57:38;;;;;;;2.10;0.70;;;;;;;-146.18;100.00;67994.34;9990590;29;20111;-66
2021/04/15 12:02:45;;;;;;;2.03;0.60;;;;;;;-146.18;100.00;67994.34;10000433;29;20044;-75
2021/04/15 12:08:08;;;;;;;3.63;0.60;;;;;;;-146.18;100.00;67994.34;10008552;29;20043;-66
2021/04/15 12:13:32;;;;;;;2.03;0.80;;;;;;;-146.18;100.00;67994.34;10001550;29;20052;-71
2021/04/15 12:18:38;;;;;;;4.55;0.73;;;;;;;-146.18;100.00;67994.34;10000682;29;20040;-68
2021/04/15 12:23:43;;;;;;;2.72;0.70;;;;;;;-146.18;100.00;67994.34;9996356;29;20048;-69
2021/04/15 12:29:18;;;;;;;3.90;0.75;;;;;;;-146.18;100.00;67994.34;9981053;29;20059;-65
2021/04/15 12:34:37;;;;;;;1.35;0.43;;;;;;;-146.18;100.00;67994.34;9986714;29;20710;-65
2021/04/15 12:39:49;;;;;;;2.28;0.60;;;;;;;-146.18;100.00;67994.34;9992902;29;20130;-68
2021/04/15 12:44:45;;;;;;;4.20;0.50;;;;;;;-146.18;100.00;67994.34;9999507;29;20052;-68
2021/04/15 12:49:41;;;;;;;4.90;0.63;;;;;;;-146.18;100.00;67994.34;9991769;29;20100;-67
2021/04/15 12:54:38;;;;;;;2.63;0.73;;;;;;;-146.18;100.00;67994.34;9995097;29;20423;-64
2021/04/15 12:59:40;;;;;;;2.05;0.50;;;;;;;-146.18;100.00;67994.34;9993325;29;20040;-65
2021/04/15 13:04:44;;;;;;;1.92;0.63;;;;;;;-146.18;100.00;67994.34;9984247;29;20470;-64
2021/04/15 13:09:43;;;;;;;1.23;0.47;;;;;;;-146.18;100.00;67994.34;9991957;29;20418;-67
2021/04/15 13:14:42;;;;;;;1.25;0.43;;;;;;;-146.18;100.00;67994.34;9996361;29;20115;-67
2021/04/15 13:20:00;;;;;;;2.15;0.45;;;;;;;-146.18;100.00;67994.34;9988792;29;20554;-64
2021/04/15 13:25:01;;;;;;;1.88;0.57;;;;;;;-146.18;100.00;67994.34;9995731;29;20107;-68
2021/04/15 13:30:14;;;;;;;3.20;1.13;;;;;;;-146.18;100.00;67994.34;9997398;29;20132;-66
2021/04/15 13:35:20;;;;;;;2.83;0.80;;;;;;;-146.18;100.00;67994.34;10003450;29;20454;-64
2021/04/15 13:40:22;;;;;;;5.13;0.82;;;;;;;-146.18;100.00;67994.34;10002871;29;20052;-63
2021/04/15 13:45:37;;;;;;;2.20;0.70;;;;;;;-146.18;100.00;67994.34;10006275;29;20112;-64
2021/04/15 13:51:12;;;;;;;2.67;0.60;;;;;;;-146.18;100.00;67994.34;9997795;29;20044;-65
2021/04/15 13:56:08;;;;;;;4.07;0.52;;;;;;;-146.18;100.00;67994.34;9990488;29;20085;-66
2021/04/15 14:01:43;;;;;;;2.17;0.28;;;;;;;-146.18;100.00;67994.34;9991621;29;20112;-65
2021/04/15 14:06:39;;;;;;;1.48;0.40;;;;;;;-146.18;100.00;67994.34;10011834;29;20877;-65
2021/04/15 14:11:38;;;;;;;3.25;0.88;;;;;;;-146.18;100.00;67994.34;9997563;29;20506;-65
2021/04/15 14:16:37;;;;;;;3.97;0.90;;;;;;;-146.18;100.00;67994.34;9995433;29;20051;-66
2021/04/15 14:21:39;;;;;;;1.88;0.70;;;;;;;-146.18;100.00;67994.34;10000905;29;20507;-66
2021/04/15 14:26:42;;;;;;;4.50;0.90;;;;;;;-146.18;100.00;67994.34;9990714;29;20091;-67
2021/04/15 14:31:41;;;;;;;1.48;0.50;;;;;;;-146.18;100.00;67994.34;10007367;29;20070;-65
2021/04/15 14:36:38;;;;;;;3.08;0.70;;;;;;;-146.18;100.00;67994.34;10000194;29;20056;-69
2021/04/15 14:41:35;;;;;;;2.55;1.00;;;;;;;-146.18;100.00;67994.34;10004221;29;20052;-66
2021/04/15 14:46:37;;;;;;;1.75;0.55;;;;;;;-146.18;100.00;67994.34;10003089;29;20104;-62
2021/04/15 14:51:33;;;;;;;3.03;0.82;;;;;;;-146.18;100.00;67994.34;10000799;29;20083;-67
2021/04/15 14:56:31;;;;;;;2.88;1.00;;;;;;;-146.18;100.00;67994.34;9995490;29;20046;-64
2021/04/15 15:01:37;;;;;;;3.92;0.70;;;;;;;-146.18;100.00;67994.34;9989062;29;20044;-65
2021/04/15 15:06:39;;;;;;;8.45;0.98;;;;;;;-146.18;100.00;67994.34;10001413;29;20391;-63
2021/04/15 15:11:37;;;;;;;3.45;0.95;;;;;;;-146.18;100.00;67994.34;9996617;29;20094;-65
2021/04/15 15:16:35;;;;;;;5.82;0.93;;;;;;;-146.18;100.00;67994.34;9986864;29;20059;-67
2021/04/15 15:21:43;;;;;;;3.65;0.95;;;;;;;-146.18;100.00;67994.34;9990361;29;20157;-70
2021/04/15 15:26:42;;;;;;;5.82;1.30;;;;;;;-146.18;100.00;67994.34;10003741;29;20048;-68
2021/04/15 15:31:42;;;;;;;2.17;0.70;;;;;;;-146.18;100.00;67994.34;9990629;29;20062;-68
2021/04/15 15:36:39;;;;;;;2.88;0.55;;;;;;;-146.18;100.00;67994.34;9991344;29;20098;-68
2021/04/15 15:41:57;;;;;;;2.05;0.75;;;;;;;-146.18;100.00;67994.34;9994678;29;20052;-66
2021/04/15 15:46:55;;;;;;;4.30;0.93;;;;;;;-146.18;100.00;67994.34;10006530;29;20047;-67
2021/04/15 15:51:51;;;;;;;5.10;1.38;;;;;;;-146.18;100.00;67994.34;9996193;29;20534;-66
2021/04/15 15:56:48;;;;;;;2.83;1.15;;;;;;;-146.18;100.00;67994.34;9994958;29;20407;-65
2021/04/15 16:02:06;;;;;;;1.48;0.60;;;;;;;-146.18;100.00;67994.34;10001372;29;20656;-68
2021/04/15 16:07:09;;;;;;;2.72;0.93;;;;;;;-146.18;100.00;67994.34;9982899;29;20056;-69
2021/04/15 16:12:41;;;;;;;2.65;0.73;;;;;;;-146.18;100.00;67994.34;10009221;29;20051;-68
2021/04/15 16:17:37;;;;;;;3.47;0.80;;;;;;;-146.18;100.00;67994.34;9974068;29;20113;-67
2021/04/15 16:22:34;;;;;;;2.47;0.80;;;;;;;-146.18;100.00;67994.34;10003095;29;20052;-68
2021/04/15 16:27:30;;;;;;;2.75;0.80;;;;;;;-146.18;100.00;67994.34;10003397;29;20044;-66
2021/04/15 16:32:26;;;;;;;2.35;0.77;;;;;;;-146.18;100.00;67994.34;10004004;29;20600;-67
2021/04/15 16:37:25;;;;;;;2.47;0.80;;;;;;;-146.18;100.00;67994.34;9992636;29;20041;-69
2021/04/15 16:42:25;;;;;;;1.73;0.70;;;;;;;-146.18;100.00;67994.34;9987130;29;20645;-67
2021/04/15 16:47:22;;;;;;;2.63;0.85;;;;;;;-146.18;100.00;67994.34;9987480;29;20044;-65
2021/04/15 16:52:19;;;;;;;3.58;1.60;;;;;;;-146.18;100.00;67994.34;9987054;29;20052;-64
2021/04/15 16:57:15;;;;;;;3.90;1.20;;;;;;;-146.18;100.00;67994.34;9997590;29;20044;-65
2021/04/15 17:02:14;;;;;;;3.00;1.27;;;;;;;-146.18;100.00;67994.34;10001560;29;20044;-63
2021/04/15 17:07:11;;;;;;;3.30;1.30;;;;;;;-146.18;100.00;67994.34;9994669;29;20442;-66
2021/04/15 17:12:09;;;;;;;2.20;1.00;;;;;;;-146.18;100.00;67994.34;10008229;29;20102;-68
2021/04/15 17:17:05;;;;;;;5.13;2.88;;;;;;;-146.18;100.00;67994.34;10000067;29;20488;-66
2021/04/15 17:22:01;;;;;;;2.95;1.20;;;;;;;-146.18;100.00;67994.34;10011575;29;20052;-67
2021/04/15 17:27:03;;;;;;;2.53;1.08;;;;;;;-146.18;100.00;67994.34;10002424;29;20048;-65
2021/04/15 17:31:59;;;;;;;2.92;1.30;;;;;;;-146.18;100.00;67994.34;10005989;29;20063;-67
2021/04/15 17:36:56;;;;;;;3.97;1.50;;;;;;;-146.18;100.00;67994.34;10003517;29;20051;-66
2021/04/15 17:41:52;;;;;;;3.55;1.48;;;;;;;-146.18;100.00;67994.34;9994177;29;20093;-66
2021/04/15 17:46:48;;;;;;;3.30;1.25;;;;;;;-146.18;100.00;67994.34;9996372;29;20083;-66
2021/04/15 17:51:50;;;;;;;4.40;1.38;;;;;;;-146.18;100.00;67994.34;9995975;29;20045;-67
2021/04/15 17:56:46;;;;;;;3.53;1.48;;;;;;;-146.18;100.00;67994.34;9997408;29;20052;-66
2021/04/15 18:01:44;;;;;;;4.10;1.35;;;;;;;-146.18;100.00;67994.34;10002928;29;20044;-67
2021/04/15 18:06:40;;;;;;;4.22;1.40;;;;;;;-146.18;100.00;67994.34;10018606;29;20597;-70
2021/04/15 18:11:37;;;;;;;4.10;1.63;;;;;;;-146.18;100.00;67994.34;9990700;29;20044;-69
2021/04/15 18:16:33;;;;;;;5.10;2.10;;;;;;;-146.18;100.00;67994.34;9993561;29;20075;-66
2021/04/15 18:21:30;;;;;;;3.97;1.70;;;;;;;-146.18;100.00;67994.34;9994687;29;20039;-66
2021/04/15 18:26:28;;;;;;;4.70;1.65;;;;;;;-146.18;100.00;67994.34;9999614;29;20040;-67
2021/04/15 18:31:25;;;;;;;4.38;2.30;;;;;;;-146.18;100.00;67994.34;9991244;29;20063;-71
2021/04/15 18:36:26;;;;;;;6.85;2.30;;;;;;;-146.18;100.00;67994.34;9992531;29;20067;-66
2021/04/15 18:41:23;;;;;;;4.20;1.63;;;;;;;-146.18;100.00;67994.34;9985528;29;20055;-66
2021/04/15 18:46:22;;;;;;;5.75;1.90;;;;;;;-146.18;100.00;67994.34;9999872;29;20466;-67
2021/04/15 18:51:20;;;;;;;6.35;1.95;;;;;;;-146.18;100.00;67994.34;9990540;29;20851;-69
2021/04/15 18:56:18;;;;;;;5.45;1.85;;;;;;;-146.18;100.00;67994.34;10003420;29;20574;-65
2021/04/15 19:01:14;;;;;;;3.60;1.17;;;;;;;-146.18;100.00;67994.34;9993185;29;20044;-70
2021/04/15 19:06:10;;;;;;;3.10;1.10;;;;;;;-146.18;100.00;67994.34;9988682;29;20044;-68
2021/04/15 19:11:07;;;;;;;2.72;0.90;;;;;;;-146.18;100.00;67994.34;9986650;29;20048;-71
2021/04/15 19:16:04;;;;;;;2.72;1.27;;;;;;;-146.18;100.00;67994.34;9999086;29;20063;-68
2021/04/15 19:21:02;;;;;;;7.75;1.48;;;;;;;-146.18;100.00;67994.34;9992594;29;20119;-65
2021/04/15 19:25:59;;;;;;;3.40;1.08;;;;;;;-146.18;100.00;67994.34;9998305;29;20089;-68
2021/04/15 19:30:58;;;;;;;2.97;0.88;;;;;;;-146.18;100.00;67994.34;9990090;29;20052;-68
2021/04/15 19:35:55;;;;;;;2.92;1.10;;;;;;;-146.18;100.00;67994.34;9985874;29;20134;-67
2021/04/15 19:40:52;;;;;;;3.22;1.10;;;;;;;-146.18;100.00;67994.34;9984785;29;20044;-66
2021/04/15 19:45:49;;;;;;;4.85;1.33;;;;;;;-146.18;100.00;67994.34;9988123;29;20056;-68
2021/04/15 19:50:48;;;;;;;4.35;1.45;;;;;;;-146.18;100.00;67994.34;9997923;29;20130;-66
2021/04/15 19:55:45;;;;;;;4.75;1.67;;;;;;;-146.18;100.00;67994.34;9984977;29;20107;-67
2021/04/15 20:00:44;;;;;;;3.72;1.55;;;;;;;-146.18;100.00;67994.34;9997614;29;20047;-66
2021/04/15 20:05:42;;;;;;;5.88;1.55;;;;;;;-146.18;100.00;67994.34;9989602;29;20099;-67
2021/04/15 20:10:41;;;;;;;2.78;1.27;;;;;;;-146.18;100.00;67994.34;9991577;29;20059;-66
2021/04/15 20:15:38;;;;;;;4.28;1.60;;;;;;;-146.18;100.00;67994.34;9984931;29;20051;-64
2021/04/15 20:20:34;;;;;;;3.90;1.40;;;;;;;-146.18;100.00;67994.34;9992044;29;20064;-67
2021/04/15 20:25:32;;;;;;;8.68;1.40;;;;;;;-146.18;100.00;67994.34;9987946;29;20043;-68
2021/04/15 20:30:31;;;;;;;4.05;1.33;;;;;;;-146.18;100.00;67994.34;9980217;29;20056;-68
2021/04/15 20:35:28;;;;;;;3.25;0.90;;;;;;;-146.18;100.00;67994.34;9999260;29;20471;-68
2021/04/15 20:40:24;;;;;;;3.95;1.35;;;;;;;-146.18;100.00;67994.34;10008788;29;20048;-68
2021/04/15 20:45:20;;;;;;;2.78;0.90;;;;;;;-146.18;100.00;67994.34;10015546;29;20099;-68
2021/04/15 20:50:21;;;;;;;3.38;1.20;;;;;;;-146.18;100.00;67994.34;10012968;29;20041;-68
2021/04/15 20:55:19;;;;;;;3.00;1.08;;;;;;;-146.18;100.00;67994.34;10004670;29;20095;-69
2021/04/15 21:00:20;;;;;;;3.63;1.10;;;;;;;-146.18;100.00;67994.34;10002214;29;20044;-69
2021/04/15 21:05:17;;;;;;;3.58;1.00;;;;;;;-146.18;100.00;67994.34;10015660;29;20052;-68
2021/04/15 21:10:20;;;;;;;5.93;1.08;;;;;;;-146.18;100.00;67994.34;10006294;29;20044;-67
2021/04/15 21:15:16;;;;;;;5.07;0.90;;;;;;;-146.18;100.00;67994.34;10007651;29;20087;-68
2021/04/15 21:20:16;;;;;;;3.47;1.10;;;;;;;-146.18;100.00;67994.34;10020034;29;20487;-67
2021/04/15 21:25:13;;;;;;;4.85;1.13;;;;;;;-146.18;100.00;67994.34;10006454;29;20072;-67
2021/04/15 21:30:11;;;;;;;2.67;1.00;;;;;;;-146.18;100.00;67994.34;10005030;29;20477;-68
2021/04/15 21:35:08;;;;;;;2.45;0.95;;;;;;;-146.18;100.00;67994.34;10005445;29;20067;-67
2021/04/15 21:40:07;;;;;;;3.50;0.88;;;;;;;-146.18;100.00;67994.34;10011437;29;20059;-67
2021/04/15 21:45:06;;;;;;;3.17;1.00;;;;;;;-146.18;100.00;67994.34;10006032;29;20071;-68
2021/04/15 21:50:04;;;;;;;3.45;1.02;;;;;;;-146.18;100.00;67994.34;9998659;29;20054;-68
2021/04/15 21:55:00;;;;;;;2.58;0.90;;;;;;;-146.18;100.00;67994.34;9996648;29;20475;-67
2021/04/15 21:59:56;;;;;;;4.55;1.25;;;;;;;-146.18;100.00;67994.34;10001643;29;20092;-67
2021/04/15 22:04:52;;;;;;;3.08;1.00;;;;;;;-146.18;100.00;67994.34;10001086;29;20044;-67
2021/04/15 22:09:48;;;;;;;3.30;0.90;;;;;;;-146.18;100.00;67994.34;9995579;29;20102;-67
2021/04/15 22:14:44;;;;;;;3.53;1.17;;;;;;;-146.18;100.00;67994.34;10003624;29;20066;-68
2021/04/15 22:19:40;;;;;;;3.15;1.10;;;;;;;-146.18;100.00;67994.34;10005370;29;20054;-67
2021/04/15 22:24:42;;;;;;;3.25;1.00;;;;;;;-146.18;100.00;67994.34;10002625;29;20058;-67
2021/04/15 22:29:38;;;;;;;2.97;1.02;;;;;;;-146.18;100.00;67994.34;9987541;29;20123;-68
2021/04/15 22:34:34;;;;;;;3.15;0.80;;;;;;;-146.18;100.00;67994.34;9994965;29;20451;-67
2021/04/15 22:39:32;;;;;;;3.40;0.90;;;;;;;-146.18;100.00;67994.34;9994967;29;20048;-67
2021/04/15 22:44:28;;;;;;;3.20;0.80;;;;;;;-146.18;100.00;67994.34;10003516;29;20048;-67
2021/04/15 22:49:24;;;;;;;3.10;1.10;;;;;;;-146.18;100.00;67994.34;9990399;29;20147;-67
2021/04/15 22:54:20;;;;;;;4.72;1.27;;;;;;;-146.18;100.00;67994.34;9993860;29;20469;-67